Terminal Aerodrome Forecast
Issued by NWS Mt. Holly, NJ

Home | Current Version | Previous Version | Text Only | Print | Product List | Glossary On
Versions: 1 2 3 4 5 6 7 8 9 10 11 12 13 14 15 16 17
000
FTUS41 KPHI 041146 CCA
TAFRDG
TAF COR
KRDG 041146Z 0412/0512 05004KT 6SM -SHRA SCT015 OVC060
      TEMPO 0412/0416 3SM SHRA BR BKN015
     FM041800 03005KT P6SM OVC040
     FM050000 VRB03KT P6SM BKN050
     FM050600 VRB03KT P6SM SCT050=

USA.gov is the U.S. government's official web portal to all federal, state and local government web resources and services.